createdAt,value
2022-08-29T00:02:49.981Z,10.20
2022-08-29T00:05:53.258Z,9.60
2022-08-29T00:08:57.361Z,9.50
2022-08-29T00:12:00.594Z,10.30
2022-08-29T00:15:06.682Z,10.20
2022-08-29T00:18:09.756Z,9.40
2022-08-29T00:21:13.162Z,9.80
2022-08-29T00:24:17.110Z,10.10
2022-08-29T00:27:20.062Z,9.10
2022-08-29T00:30:24.021Z,10.60
2022-08-29T00:33:27.033Z,9.40
2022-08-29T00:36:30.470Z,8.70
2022-08-29T00:39:33.563Z,9.00
2022-08-29T00:42:37.997Z,9.50
2022-08-29T00:45:53.284Z,8.90
2022-08-29T00:49:01.950Z,8.30
2022-08-29T00:52:11.384Z,8.60
2022-08-29T00:55:22.580Z,8.40
2022-08-29T00:58:31.032Z,7.40
2022-08-29T01:01:34.046Z,7.60
2022-08-29T01:04:37.884Z,7.10
2022-08-29T01:07:41.455Z,7.00
2022-08-29T01:11:03.055Z,6.90
2022-08-29T01:14:06.121Z,7.30
2022-08-29T01:17:10.535Z,7.40
2022-08-29T01:20:55.326Z,7.10
2022-08-29T01:24:27.016Z,6.60
2022-08-29T01:27:34.464Z,6.40
2022-08-29T01:30:56.028Z,6.30
2022-08-29T01:33:59.709Z,6.20
2022-08-29T01:37:05.916Z,6.00
2022-08-29T01:40:10.089Z,6.50
2022-08-29T01:43:13.085Z,6.00
2022-08-29T01:46:20.758Z,6.10
2022-08-29T01:49:24.886Z,6.00
2022-08-29T01:52:28.211Z,5.80
2022-08-29T01:55:31.131Z,6.00
2022-08-29T01:58:33.993Z,5.90
2022-08-29T02:01:40.010Z,5.80
2022-08-29T02:04:46.126Z,6.20
2022-08-29T02:07:49.691Z,6.00
2022-08-29T02:10:52.957Z,6.80
2022-08-29T02:13:58.525Z,6.40
2022-08-29T02:17:02.857Z,6.70
2022-08-29T02:20:08.470Z,7.10
2022-08-29T02:23:29.948Z,6.80
2022-08-29T02:26:34.412Z,6.60
2022-08-29T02:29:38.421Z,6.00
2022-08-29T02:32:41.490Z,7.00
2022-08-29T02:35:46.138Z,6.90
2022-08-29T02:38:49.882Z,7.30
2022-08-29T02:41:53.031Z,6.50
2022-08-29T02:44:56.972Z,6.60
2022-08-29T02:47:59.958Z,6.50
2022-08-29T02:51:02.872Z,6.40
2022-08-29T02:54:05.907Z,6.60
2022-08-29T02:57:08.814Z,6.70
2022-08-29T03:00:18.318Z,6.80
2022-08-29T03:03:21.274Z,6.90
2022-08-29T03:06:24.278Z,6.30
2022-08-29T03:09:27.153Z,6.00
2022-08-29T03:12:30.193Z,6.60
2022-08-29T03:15:35.442Z,6.40
2022-08-29T03:18:38.732Z,5.80
2022-08-29T03:21:43.569Z,6.10
2022-08-29T03:24:46.455Z,6.70
2022-08-29T03:27:49.536Z,6.00
2022-08-29T03:30:52.446Z,6.70
2022-08-29T03:33:56.698Z,6.30
2022-08-29T03:36:59.943Z,6.10
2022-08-29T03:40:05.975Z,6.50
2022-08-29T03:43:10.464Z,6.00
2022-08-29T03:46:13.382Z,6.10
2022-08-29T03:49:16.323Z,6.10
2022-08-29T03:52:19.236Z,5.70
2022-08-29T03:55:22.231Z,6.30
2022-08-29T03:58:25.341Z,5.60
2022-08-29T04:01:29.697Z,6.10
2022-08-29T04:04:50.852Z,5.70
2022-08-29T04:07:58.907Z,6.10
2022-08-29T04:11:01.846Z,5.50
2022-08-29T04:14:04.849Z,5.70
2022-08-29T04:17:10.306Z,6.10
2022-08-29T04:20:14.272Z,6.20
2022-08-29T04:23:17.170Z,6.10
2022-08-29T04:26:36.455Z,6.10
2022-08-29T04:29:39.990Z,6.00
2022-08-29T04:32:44.548Z,6.00
2022-08-29T04:35:47.504Z,5.90
2022-08-29T04:38:50.650Z,6.20
2022-08-29T04:41:53.592Z,5.70
2022-08-29T04:44:57.469Z,6.10
2022-08-29T04:48:03.529Z,5.60
2022-08-29T04:51:06.816Z,5.70
2022-08-29T04:54:10.002Z,5.60
2022-08-29T04:57:12.903Z,5.80
2022-08-29T05:00:19.890Z,6.10
2022-08-29T05:03:23.735Z,6.10
2022-08-29T05:06:26.755Z,5.70
2022-08-29T05:09:29.768Z,6.00
2022-08-29T05:12:33.858Z,6.10
2022-08-29T05:15:38.782Z,6.30
2022-08-29T05:18:44.293Z,6.10
2022-08-29T05:21:47.309Z,6.20
2022-08-29T05:24:53.539Z,6.10
2022-08-29T05:27:56.489Z,5.70
2022-08-29T05:31:00.387Z,6.50
2022-08-29T05:34:32.024Z,5.90
2022-08-29T05:37:28.119Z,6.00
2022-08-29T05:40:31.485Z,6.10
2022-08-29T05:43:35.018Z,5.80
2022-08-29T05:46:37.950Z,6.30
2022-08-29T05:49:43.048Z,6.00
2022-08-29T05:52:45.964Z,5.80
2022-08-29T05:55:49.026Z,6.10
2022-08-29T05:58:52.030Z,5.90
2022-08-29T06:01:54.967Z,6.30
2022-08-29T06:04:59.408Z,5.60
2022-08-29T06:08:02.795Z,5.60
2022-08-29T06:11:05.936Z,6.00
2022-08-29T06:14:08.915Z,6.70
2022-08-29T06:25:39.807Z,6.50
2022-08-29T06:28:45.953Z,7.00
2022-08-29T06:31:47.559Z,6.80
2022-08-29T06:34:49.488Z,6.20
2022-08-29T06:37:51.019Z,6.10
2022-08-29T06:40:52.634Z,5.50
2022-08-29T06:43:56.199Z,5.90
2022-08-29T06:46:58.528Z,5.80
2022-08-29T06:50:00.232Z,5.30
2022-08-29T06:53:26.090Z,6.60
2022-08-29T06:56:23.863Z,6.40
2022-08-29T06:59:28.283Z,5.80
2022-08-29T07:02:30.001Z,5.90
2022-08-29T07:05:32.640Z,5.80
2022-08-29T07:08:35.331Z,4.90
2022-08-29T07:11:41.256Z,5.70
2022-08-29T07:14:43.245Z,6.00
2022-08-29T07:17:45.303Z,5.90
2022-08-29T07:23:49.836Z,5.00
2022-08-29T07:26:51.924Z,8.70
2022-08-29T07:32:55.199Z,5.30
2022-08-29T07:36:01.027Z,5.50
2022-08-29T07:39:09.988Z,8.70
2022-08-29T07:42:11.628Z,6.00
2022-08-29T07:45:17.496Z,7.30
2022-08-29T07:48:22.938Z,6.30
2022-08-29T07:51:26.158Z,4.90
2022-08-29T07:54:27.803Z,9.10
2022-08-29T07:57:29.446Z,7.90
2022-08-29T08:00:31.384Z,5.30
2022-08-29T08:06:36.140Z,4.90
2022-08-29T08:09:37.873Z,4.30
2022-08-29T08:12:39.516Z,4.70
2022-08-29T08:15:41.138Z,10.40
2022-08-29T08:18:44.031Z,5.60
2022-08-29T08:21:49.848Z,4.40
2022-08-29T08:24:52.668Z,7.20
2022-08-29T08:27:55.346Z,5.00
2022-08-29T08:31:03.600Z,4.50
2022-08-29T08:34:07.407Z,4.00
2022-08-29T08:37:10.091Z,4.50
2022-08-29T08:40:53.811Z,4.70
2022-08-29T08:43:59.998Z,4.60
2022-08-29T08:47:07.128Z,4.50
2022-08-29T08:50:16.512Z,5.20
2022-08-29T08:53:36.707Z,4.20
2022-08-29T08:56:43.692Z,4.30
2022-08-29T08:59:58.469Z,3.90
2022-08-29T09:03:25.682Z,4.50
2022-08-29T09:06:48.276Z,3.70
2022-08-29T09:10:08.543Z,3.80
2022-08-29T09:13:32.767Z,3.90
2022-08-29T09:16:40.622Z,3.70
2022-08-29T09:19:43.783Z,4.10
2022-08-29T09:22:58.313Z,4.00
2022-08-29T09:25:59.956Z,3.20
2022-08-29T09:32:17.759Z,3.10
2022-08-29T09:35:30.370Z,3.70
2022-08-29T09:38:35.206Z,3.70
2022-08-29T09:41:37.123Z,3.80
2022-08-29T09:47:41.693Z,3.20
2022-08-29T09:53:45.013Z,3.10
2022-08-29T09:56:51.993Z,3.70
2022-08-29T10:00:13.824Z,3.40
2022-08-29T10:03:22.129Z,3.00
2022-08-29T10:06:30.683Z,3.20
2022-08-29T10:09:32.299Z,3.50
2022-08-29T10:12:42.665Z,3.20
2022-08-29T10:16:02.750Z,2.70
2022-08-29T10:19:12.821Z,2.80
2022-08-29T10:22:38.140Z,3.00
2022-08-29T10:25:40.818Z,2.80
2022-08-29T10:29:11.131Z,2.80
2022-08-29T10:32:42.630Z,2.80
2022-08-29T10:36:00.616Z,3.00
2022-08-29T10:39:15.378Z,2.80
2022-08-29T10:42:21.252Z,2.90
2022-08-29T10:45:39.438Z,2.90
2022-08-29T10:48:48.445Z,2.90
2022-08-29T10:52:16.427Z,2.50
2022-08-29T10:55:51.960Z,2.30
2022-08-29T10:58:56.742Z,2.60
2022-08-29T11:02:09.853Z,2.80
2022-08-29T11:05:21.559Z,2.70
2022-08-29T11:08:30.245Z,2.80
2022-08-29T11:11:33.493Z,3.30
2022-08-29T11:15:01.670Z,3.00
2022-08-29T11:18:36.211Z,2.90
2022-08-29T11:21:51.097Z,3.20
2022-08-29T11:25:04.931Z,2.50
2022-08-29T11:28:34.179Z,2.90
2022-08-29T11:32:11.661Z,2.50
2022-08-29T11:35:20.038Z,2.80
2022-08-29T11:38:33.595Z,2.60
2022-08-29T11:41:41.337Z,2.70
2022-08-29T11:44:53.569Z,2.50
2022-08-29T11:48:01.163Z,2.70
2022-08-29T11:51:40.889Z,2.40
2022-08-29T11:54:42.449Z,2.00
2022-08-29T12:00:50.794Z,1.90
2022-08-29T12:03:55.344Z,2.50
2022-08-29T12:07:01.193Z,2.00
2022-08-29T12:10:10.688Z,2.20
2022-08-29T12:13:47.582Z,2.20
2022-08-29T12:16:52.932Z,2.20
2022-08-29T12:20:07.074Z,2.20
2022-08-29T12:23:17.882Z,2.00
2022-08-29T12:26:37.983Z,2.30
2022-08-29T12:29:44.562Z,2.10
2022-08-29T12:32:57.546Z,1.90
2022-08-29T12:36:06.798Z,2.00
2022-08-29T12:39:20.809Z,2.20
2022-08-29T12:42:44.696Z,2.50
2022-08-29T12:45:48.457Z,2.40
2022-08-29T12:48:57.500Z,1.90
2022-08-29T12:52:04.871Z,1.80
2022-08-29T12:55:28.912Z,1.80
2022-08-29T12:58:38.367Z,2.10
2022-08-29T13:01:40.153Z,2.00
2022-08-29T13:07:57.824Z,1.90
2022-08-29T13:11:02.798Z,2.00
2022-08-29T13:14:10.485Z,2.00
2022-08-29T13:17:14.698Z,2.10
2022-08-29T13:20:47.760Z,2.20
2022-08-29T13:24:02.552Z,1.70
2022-08-29T13:27:06.471Z,1.90
2022-08-29T13:30:08.848Z,1.60
2022-08-29T13:33:34.579Z,2.20
2022-08-29T13:36:59.122Z,2.20
2022-08-29T13:40:32.919Z,1.90
2022-08-29T13:43:42.618Z,2.00
2022-08-29T13:46:46.713Z,2.00
2022-08-29T13:49:49.264Z,2.00
2022-08-29T13:52:52.800Z,2.40
2022-08-29T13:55:54.496Z,2.00
2022-08-29T13:58:57.178Z,2.10
2022-08-29T14:02:15.281Z,2.30
2022-08-29T14:05:17.554Z,2.30
2022-08-29T14:08:19.399Z,2.00
2022-08-29T14:14:22.594Z,1.70
2022-08-29T14:17:24.394Z,2.10
2022-08-29T14:20:26.036Z,2.00
2022-08-29T14:23:27.851Z,2.30
2022-08-29T14:29:33.700Z,2.20
2022-08-29T14:32:35.930Z,2.20
2022-08-29T14:35:37.538Z,2.30
2022-08-29T14:38:44.146Z,1.70
2022-08-29T14:41:46.003Z,2.30
2022-08-29T14:47:49.451Z,2.20
2022-08-29T14:50:51.116Z,2.30
2022-08-29T14:53:54.483Z,2.00
2022-08-29T14:56:56.510Z,2.10
2022-08-29T14:59:58.213Z,2.40
2022-08-29T15:03:00.753Z,2.20
2022-08-29T15:06:05.172Z,2.30
2022-08-29T15:09:06.735Z,2.20
2022-08-29T15:12:10.232Z,2.00
2022-08-29T15:15:21.326Z,3.20
2022-08-29T15:19:31.619Z,2.20
2022-08-29T15:21:59.354Z,2.40
2022-08-29T15:25:02.986Z,2.60
2022-08-29T15:28:05.208Z,2.40
2022-08-29T15:31:07.181Z,2.20
2022-08-29T15:34:09.464Z,2.30
2022-08-29T15:40:13.986Z,2.10
2022-08-29T15:43:15.731Z,2.20
2022-08-29T15:46:18.496Z,1.90
2022-08-29T15:49:22.573Z,2.30
2022-08-29T15:52:26.422Z,1.80
2022-08-29T15:55:28.172Z,2.20
2022-08-29T15:58:29.804Z,2.10
2022-08-29T16:01:41.328Z,2.20
2022-08-29T16:04:46.835Z,2.10
2022-08-29T16:07:48.386Z,1.80
2022-08-29T16:10:50.011Z,2.00
2022-08-29T16:14:08.401Z,2.50
2022-08-29T16:17:15.431Z,2.00
2022-08-29T16:20:16.995Z,1.90
2022-08-29T16:23:18.802Z,2.20
2022-08-29T16:26:22.263Z,1.80
2022-08-29T16:29:26.846Z,2.10
2022-08-29T16:32:28.847Z,2.00
2022-08-29T16:35:30.529Z,2.60
2022-08-29T16:38:33.880Z,2.20
2022-08-29T16:41:36.067Z,2.40
2022-08-29T16:44:38.290Z,2.60
2022-08-29T16:47:40.259Z,2.20
2022-08-29T16:50:45.945Z,3.10
2022-08-29T16:53:47.752Z,2.70
2022-08-29T16:56:49.496Z,2.90
2022-08-29T16:59:51.051Z,5.20
2022-08-29T17:02:52.619Z,4.70
2022-08-29T17:05:54.216Z,4.20
2022-08-29T17:08:56.664Z,3.80
2022-08-29T17:11:59.211Z,3.50
2022-08-29T17:15:04.078Z,3.40
2022-08-29T17:21:08.326Z,3.50
2022-08-29T17:24:11.394Z,3.10
2022-08-29T17:27:17.140Z,3.20
2022-08-29T17:30:22.461Z,3.30
2022-08-29T17:33:26.313Z,3.50
2022-08-29T17:36:39.971Z,3.00
2022-08-29T17:39:45.173Z,4.10
2022-08-29T17:42:53.109Z,4.40
2022-08-29T17:45:56.871Z,3.70
2022-08-29T17:48:58.619Z,3.70
2022-08-29T17:52:00.263Z,4.10
2022-08-29T17:55:06.994Z,4.00
2022-08-29T17:58:09.153Z,3.90
2022-08-29T18:01:16.214Z,4.00
2022-08-29T18:04:18.879Z,3.60
2022-08-29T18:10:26.721Z,3.90
2022-08-29T18:13:28.365Z,3.80
2022-08-29T18:16:30.234Z,4.20
2022-08-29T18:19:31.803Z,4.20
2022-08-29T18:22:33.498Z,4.20
2022-08-29T18:25:35.801Z,4.90
2022-08-29T18:28:37.362Z,6.00
2022-08-29T18:31:41.280Z,5.90
2022-08-29T18:34:43.291Z,5.10
2022-08-29T18:37:46.386Z,4.60
2022-08-29T18:40:53.187Z,4.40
2022-08-29T18:43:55.456Z,3.40
2022-08-29T18:46:57.085Z,3.50
2022-08-29T18:50:17.047Z,3.40
2022-08-29T18:53:21.078Z,3.50
2022-08-29T18:56:22.755Z,3.50
2022-08-29T18:59:24.485Z,3.20
2022-08-29T19:02:26.704Z,3.10
2022-08-29T19:05:31.470Z,3.40
2022-08-29T19:08:33.215Z,3.00
2022-08-29T19:11:34.781Z,3.00
2022-08-29T19:14:45.818Z,3.30
2022-08-29T19:17:48.065Z,3.10
2022-08-29T19:21:02.213Z,3.00
2022-08-29T19:24:04.001Z,3.20
2022-08-29T19:27:17.827Z,3.40
2022-08-29T19:30:28.847Z,11.70
2022-08-29T19:33:31.424Z,14.00
2022-08-29T19:36:34.959Z,13.10
2022-08-29T19:39:36.802Z,11.10
2022-08-29T19:42:38.732Z,11.90
2022-08-29T19:45:42.453Z,18.20
2022-08-29T19:52:04.613Z,19.20
2022-08-29T19:55:09.869Z,16.70
2022-08-29T19:58:11.528Z,14.20
2022-08-29T20:01:16.129Z,13.10
2022-08-29T20:04:18.240Z,11.80
2022-08-29T20:07:20.434Z,10.30
2022-08-29T20:10:24.889Z,13.70
2022-08-29T20:13:32.845Z,13.80
2022-08-29T20:16:37.579Z,16.30
2022-08-29T20:19:40.143Z,15.90
2022-08-29T20:22:41.823Z,17.40
2022-08-29T20:25:45.492Z,14.20
2022-08-29T20:28:48.063Z,14.50
2022-08-29T20:31:50.237Z,16.60
2022-08-29T20:37:53.352Z,11.90
2022-08-29T20:40:55.220Z,9.90
2022-08-29T20:44:00.099Z,8.60
2022-08-29T20:47:02.069Z,8.30
2022-08-29T20:50:09.891Z,9.40
2022-08-29T20:53:14.333Z,8.60
2022-08-29T20:56:32.984Z,8.30
2022-08-29T20:59:37.768Z,8.20
2022-08-29T21:03:00.737Z,7.50
2022-08-29T21:06:04.296Z,7.40
2022-08-29T21:09:05.941Z,7.40
2022-08-29T21:12:07.815Z,8.00
2022-08-29T21:15:13.065Z,8.30
2022-08-29T21:21:24.868Z,8.60
2022-08-29T21:24:28.248Z,8.20
2022-08-29T21:27:30.088Z,8.30
2022-08-29T21:30:32.660Z,8.30
2022-08-29T21:33:39.337Z,8.00
2022-08-29T21:36:41.292Z,8.40
2022-08-29T21:39:45.904Z,8.20
2022-08-29T21:42:47.656Z,8.60
2022-08-29T21:45:49.215Z,11.90
2022-08-29T21:48:56.986Z,17.10
2022-08-29T21:51:58.723Z,17.20
2022-08-29T21:55:01.220Z,15.90
2022-08-29T21:58:03.157Z,15.40
2022-08-29T22:01:05.409Z,15.20
2022-08-29T22:04:10.166Z,14.90
2022-08-29T22:07:12.653Z,13.90
2022-08-29T22:10:19.695Z,14.20
2022-08-29T22:13:21.356Z,18.10
2022-08-29T22:16:29.384Z,26.00
2022-08-29T22:19:31.734Z,20.50
2022-08-29T22:22:34.282Z,20.40
2022-08-29T22:25:36.155Z,21.20
2022-08-29T22:28:37.755Z,18.30
2022-08-29T22:31:42.283Z,15.80
2022-08-29T22:34:44.289Z,13.50
2022-08-29T22:37:45.876Z,12.70
2022-08-29T22:40:47.435Z,10.20
2022-08-29T22:43:54.675Z,10.60
2022-08-29T22:47:10.688Z,7.90
2022-08-29T22:50:15.860Z,8.60
2022-08-29T22:53:17.822Z,7.30
2022-08-29T22:56:19.497Z,7.70
2022-08-29T22:59:21.331Z,6.40
2022-08-29T23:02:23.011Z,6.70
2022-08-29T23:05:24.894Z,6.80
2022-08-29T23:08:26.440Z,6.50
2022-08-29T23:11:28.103Z,7.20
2022-08-29T23:14:29.664Z,6.40
2022-08-29T23:17:31.212Z,6.50
2022-08-29T23:20:32.683Z,6.10
2022-08-29T23:23:34.864Z,6.80
2022-08-29T23:26:37.124Z,5.40
2022-08-29T23:29:41.795Z,6.10
2022-08-29T23:32:43.582Z,5.80
2022-08-29T23:35:45.152Z,6.00
2022-08-29T23:38:47.270Z,5.80
2022-08-29T23:41:51.850Z,5.60
2022-08-29T23:44:53.353Z,7.70
2022-08-29T23:47:54.860Z,5.40
2022-08-29T23:50:56.484Z,5.20
2022-08-29T23:53:58.124Z,5.40
2022-08-29T23:56:59.632Z,5.20
